createdAt,value
2023-03-13T00:02:14.682Z,100390.78
2023-03-13T00:05:38.137Z,100386.22
2023-03-13T00:09:00.956Z,100382.72
2023-03-13T00:12:22.739Z,100384.16
2023-03-13T00:15:44.035Z,100378.78
2023-03-13T00:19:06.596Z,100374.09
2023-03-13T00:22:29.605Z,100385.31
2023-03-13T00:25:57.661Z,100376.41
2023-03-13T00:29:19.379Z,100372.72
2023-03-13T00:32:44.870Z,100369.94
2023-03-13T00:36:08.534Z,100364.53
2023-03-13T00:39:31.675Z,100368.66
2023-03-13T00:42:55.976Z,100363.13
2023-03-13T00:46:19.745Z,100364.81
2023-03-13T00:49:41.481Z,100356.75
2023-03-13T00:53:03.357Z,100359.06
2023-03-13T00:56:27.048Z,100351.00
2023-03-13T00:59:48.734Z,100351.13
2023-03-13T01:03:10.824Z,100346.53
2023-03-13T01:06:35.565Z,100344.75
2023-03-13T01:09:57.318Z,100341.88
2023-03-13T01:13:20.222Z,100341.66
2023-03-13T01:16:42.324Z,100331.78
2023-03-13T01:20:07.933Z,100329.97
2023-03-13T01:23:31.615Z,100331.41
2023-03-13T01:26:53.532Z,100333.97
2023-03-13T01:30:17.123Z,100325.91
2023-03-13T01:33:38.904Z,100329.28
2023-03-13T01:37:00.661Z,100315.91
2023-03-13T01:40:22.487Z,100319.28
2023-03-13T01:43:45.381Z,100312.22
2023-03-13T01:47:08.864Z,100314.72
2023-03-13T01:50:51.012Z,100311.25
2023-03-13T01:54:23.395Z,100304.03
2023-03-13T01:57:50.553Z,100298.50
2023-03-13T02:01:13.887Z,100285.97
2023-03-13T02:04:40.740Z,100295.59
2023-03-13T02:08:05.813Z,100279.47
2023-03-13T02:11:36.477Z,100280.19
2023-03-13T02:15:00.806Z,100274.66
2023-03-13T02:18:22.600Z,100271.06
2023-03-13T02:21:53.730Z,100273.59
2023-03-13T02:25:24.415Z,100271.53
2023-03-13T02:28:51.305Z,100261.41
2023-03-13T02:32:15.064Z,100255.03
2023-03-13T02:35:37.918Z,100244.09
2023-03-13T02:39:07.191Z,100236.00
2023-03-13T02:42:29.952Z,100247.22
2023-03-13T02:46:08.188Z,100233.84
2023-03-13T02:49:33.556Z,100233.59
2023-03-13T02:52:59.439Z,100222.03
2023-03-13T02:56:25.696Z,100233.47
2023-03-13T02:59:48.231Z,100220.34
2023-03-13T03:03:11.382Z,100220.47
2023-03-13T03:06:33.077Z,100213.50
2023-03-13T03:09:57.052Z,100209.16
2023-03-13T03:13:19.037Z,100203.88
2023-03-13T03:16:41.220Z,100198.56
2023-03-13T03:20:07.899Z,100204.69
2023-03-13T03:23:29.848Z,100193.28
2023-03-13T03:26:51.841Z,100194.25
2023-03-13T03:30:27.894Z,100195.06
2023-03-13T03:33:50.039Z,100181.81
2023-03-13T03:37:14.486Z,100185.31
2023-03-13T03:40:36.377Z,100180.84
2023-03-13T03:43:58.421Z,100171.22
2023-03-13T03:47:27.125Z,100178.09
2023-03-13T03:50:48.997Z,100172.09
2023-03-13T03:54:13.490Z,100163.03
2023-03-13T03:57:35.076Z,100153.28
2023-03-13T04:00:58.229Z,100154.84
2023-03-13T04:04:20.377Z,100155.69
2023-03-13T04:07:46.995Z,100150.13
2023-03-13T04:11:10.361Z,100143.03
2023-03-13T04:14:35.390Z,100141.09
2023-03-13T04:18:00.308Z,100140.00
2023-03-13T04:21:21.743Z,100124.81
2023-03-13T04:24:54.756Z,100121.19
2023-03-13T04:28:19.069Z,100122.88
2023-03-13T04:31:40.979Z,100110.34
2023-03-13T04:35:28.527Z,100102.28
2023-03-13T04:39:08.807Z,100093.38
2023-03-13T04:42:48.919Z,100087.81
2023-03-13T04:46:35.040Z,100087.69
2023-03-13T04:50:21.351Z,100074.44
2023-03-13T04:53:56.216Z,100074.19
2023-03-13T04:57:38.230Z,100064.28
2023-03-13T05:01:19.248Z,100055.47
2023-03-13T05:04:52.375Z,100051.03
2023-03-13T05:08:32.981Z,100040.19
2023-03-13T05:12:08.310Z,100044.50
2023-03-13T05:15:48.416Z,100028.59
2023-03-13T05:19:29.853Z,100020.66
2023-03-13T05:23:18.835Z,100020.50
2023-03-13T05:26:40.492Z,100007.97
2023-03-13T05:30:24.891Z,99988.44
2023-03-13T05:34:09.799Z,99993.63
2023-03-13T05:37:57.841Z,99978.69
2023-03-13T05:41:55.891Z,99982.16
2023-03-13T05:45:38.086Z,99972.25
2023-03-13T05:49:08.234Z,99971.31
2023-03-13T05:52:59.090Z,99954.56
2023-03-13T05:56:44.974Z,99955.41
2023-03-13T06:00:27.469Z,99942.56
2023-03-13T06:04:11.765Z,99944.94
2023-03-13T06:07:35.347Z,99945.63
2023-03-13T06:11:00.662Z,99935.03
2023-03-13T06:14:23.230Z,99932.13
2023-03-13T06:18:05.188Z,99927.53
2023-03-13T06:21:26.735Z,99917.78
2023-03-13T06:24:49.581Z,99919.44
2023-03-13T06:28:11.686Z,99908.69
2023-03-13T06:31:33.891Z,99901.44
2023-03-13T06:34:57.014Z,99894.19
2023-03-13T06:38:18.991Z,99883.59
2023-03-13T06:41:41.045Z,99882.63
2023-03-13T06:45:04.220Z,99876.22
2023-03-13T06:48:26.247Z,99868.16
2023-03-13T06:51:49.575Z,99866.19
2023-03-13T06:55:12.992Z,99860.75
2023-03-13T06:58:34.827Z,99851.81
2023-03-13T07:01:56.723Z,99842.75
2023-03-13T07:05:18.389Z,99838.00
2023-03-13T07:08:41.558Z,99826.41
2023-03-13T07:12:03.480Z,99817.34
2023-03-13T07:15:25.268Z,99812.75
2023-03-13T07:18:46.983Z,99800.88
2023-03-13T07:22:09.044Z,99796.16
2023-03-13T07:25:31.946Z,99796.97
2023-03-13T07:28:53.583Z,99793.34
2023-03-13T07:32:15.400Z,99780.50
2023-03-13T07:35:37.853Z,99782.03
2023-03-13T07:39:00.680Z,99790.00
2023-03-13T07:42:23.852Z,99798.66
2023-03-13T07:45:55.091Z,99795.84
2023-03-13T07:49:17.638Z,99785.09
2023-03-13T07:52:39.399Z,99771.72
2023-03-13T07:56:03.019Z,99752.00
2023-03-13T07:59:26.343Z,99740.81
2023-03-13T08:02:48.005Z,99728.25
2023-03-13T08:06:11.785Z,99718.22
2023-03-13T08:09:34.298Z,99710.13
2023-03-13T08:12:56.260Z,99703.69
2023-03-13T08:16:21.422Z,99698.09
2023-03-13T08:19:43.144Z,99689.84
2023-03-13T08:23:04.995Z,99696.53
2023-03-13T08:26:29.031Z,99687.47
2023-03-13T08:29:50.660Z,99670.56
2023-03-13T08:33:13.912Z,99669.56
2023-03-13T08:36:37.559Z,99661.19
2023-03-13T08:39:59.178Z,99656.56
2023-03-13T08:43:21.049Z,99652.91
2023-03-13T08:46:43.991Z,99660.59
2023-03-13T08:50:08.456Z,99646.16
2023-03-13T08:53:30.356Z,99632.75
2023-03-13T08:56:51.835Z,99627.44
2023-03-13T09:00:15.083Z,99636.09
2023-03-13T09:03:37.430Z,99630.78
2023-03-13T09:07:00.433Z,99624.50
2023-03-13T09:10:23.942Z,99618.88
2023-03-13T09:13:47.322Z,99612.22
2023-03-13T09:17:09.007Z,99608.28
2023-03-13T09:20:30.676Z,99605.47
2023-03-13T09:23:54.360Z,99585.75
2023-03-13T09:27:16.094Z,99591.44
2023-03-13T09:30:38.172Z,99585.81
2023-03-13T09:34:00.771Z,99595.63
2023-03-13T09:37:22.775Z,99584.69
2023-03-13T09:40:59.680Z,99591.00
2023-03-13T09:44:28.224Z,99575.59
2023-03-13T09:47:54.169Z,99575.00
2023-03-13T09:51:19.644Z,99584.66
2023-03-13T10:13:52.516Z,99566.06
2023-03-13T10:17:31.073Z,99546.16
2023-03-13T10:20:57.862Z,99548.66
2023-03-13T10:24:30.442Z,99541.03
2023-03-13T10:31:39.223Z,99549.78
2023-03-13T10:35:03.324Z,99548.50
2023-03-13T10:38:25.771Z,99520.75
2023-03-13T10:41:49.187Z,99528.41
2023-03-13T10:45:17.772Z,99522.81
2023-03-13T10:57:38.020Z,99522.28
2023-03-13T11:03:08.423Z,99519.50
2023-03-13T11:06:32.118Z,99513.56
2023-03-13T11:09:59.585Z,99488.81
2023-03-13T11:13:37.355Z,99497.69
2023-03-13T11:17:05.296Z,99488.06
2023-03-13T11:20:31.507Z,99488.91
2023-03-13T11:24:01.780Z,99496.81
2023-03-13T11:27:29.530Z,99468.53
2023-03-13T11:31:00.179Z,99481.38
2023-03-13T11:34:27.607Z,99473.41
2023-03-13T11:37:54.700Z,99456.47
2023-03-13T11:41:30.002Z,99471.59
2023-03-13T11:44:59.302Z,99468.63
2023-03-13T11:48:37.225Z,99466.44
2023-03-13T11:52:12.198Z,99440.13
2023-03-13T11:55:43.298Z,99452.81
2023-03-13T11:59:19.139Z,99457.47
2023-03-13T12:02:47.981Z,99453.78
2023-03-13T12:06:28.175Z,99459.78
2023-03-13T12:09:56.281Z,99440.94
2023-03-13T12:13:24.355Z,99450.91
2023-03-13T12:16:50.946Z,99432.06
2023-03-13T12:20:20.995Z,99433.03
2023-03-13T12:23:48.671Z,99437.53
2023-03-13T12:27:16.545Z,99419.16
2023-03-13T12:30:44.076Z,99437.13
2023-03-13T12:34:16.190Z,99430.97
2023-03-13T12:37:43.354Z,99423.94
2023-03-13T12:41:15.249Z,99418.41
2023-03-13T12:44:37.276Z,99424.84
2023-03-13T12:48:37.962Z,99429.50
2023-03-13T12:52:21.434Z,99426.97
2023-03-13T12:56:10.103Z,99420.25
2023-03-13T12:59:35.760Z,99415.91
2023-03-13T13:03:11.279Z,99411.50
2023-03-13T13:06:53.439Z,99395.41
2023-03-13T13:10:21.664Z,99396.34
2023-03-13T13:13:43.304Z,99390.59
2023-03-13T13:17:18.235Z,99381.50
2023-03-13T13:20:46.219Z,99377.91
2023-03-13T13:24:43.284Z,99367.97
2023-03-13T13:28:35.140Z,99379.22
2023-03-13T13:32:00.317Z,99359.06
2023-03-13T13:35:30.434Z,99361.31
2023-03-13T13:38:52.467Z,99356.13
2023-03-13T13:42:51.131Z,99352.00
2023-03-13T13:46:24.878Z,99352.34
2023-03-13T13:50:01.106Z,99348.28
2023-03-13T13:53:32.158Z,99366.06
2023-03-13T13:56:57.385Z,99345.38
2023-03-13T14:00:22.762Z,99344.81
2023-03-13T14:03:45.868Z,99348.41
2023-03-13T14:07:13.452Z,99351.78
2023-03-13T14:10:40.519Z,99354.72
2023-03-13T14:14:15.774Z,99360.72
2023-03-13T14:17:42.437Z,99343.06
2023-03-13T14:21:13.467Z,99348.69
2023-03-13T14:24:35.178Z,99321.94
2023-03-13T14:27:57.307Z,99326.56
2023-03-13T14:31:27.847Z,99330.06
2023-03-13T14:34:49.431Z,99321.84
2023-03-13T14:38:19.389Z,99322.91
2023-03-13T14:41:46.049Z,99318.84
2023-03-13T14:45:14.690Z,99317.06
2023-03-13T14:48:36.275Z,99309.91
2023-03-13T14:52:01.771Z,99318.75
2023-03-13T14:55:32.679Z,99309.13
2023-03-13T14:58:54.571Z,99302.56
2023-03-13T15:02:21.296Z,99298.28
2023-03-13T15:05:42.775Z,99302.47
2023-03-13T15:09:19.770Z,99302.91
2023-03-13T15:12:45.962Z,99299.84
2023-03-13T15:16:16.181Z,99298.41
2023-03-13T15:19:38.013Z,99290.78
2023-03-13T15:22:59.847Z,99302.81
2023-03-13T15:26:21.651Z,99280.31
2023-03-13T15:29:44.542Z,99288.34
2023-03-13T15:33:06.209Z,99283.44
2023-03-13T15:36:28.822Z,99277.72
2023-03-13T15:39:50.609Z,99274.47
2023-03-13T15:43:13.025Z,99280.66
2023-03-13T15:46:35.925Z,99273.06
2023-03-13T15:49:57.378Z,99268.19
2023-03-13T15:53:21.095Z,99274.38
2023-03-13T15:56:42.960Z,99264.44
2023-03-13T16:00:06.969Z,99262.31
2023-03-13T16:03:29.916Z,99267.28
2023-03-13T16:06:51.414Z,99246.00
2023-03-13T16:10:18.338Z,99251.97
2023-03-13T16:13:39.504Z,99251.13
2023-03-13T16:17:02.043Z,99247.59
2023-03-13T16:20:26.448Z,99247.19
2023-03-13T16:23:48.577Z,99256.44
2023-03-13T16:27:15.554Z,99239.91
2023-03-13T16:30:37.068Z,99241.34
2023-03-13T16:33:59.698Z,99237.41
2023-03-13T16:37:22.820Z,99228.91
2023-03-13T16:40:44.039Z,99230.56
2023-03-13T16:44:05.469Z,99209.09
2023-03-13T16:47:31.008Z,99206.59
2023-03-13T16:50:52.415Z,99206.81
2023-03-13T16:54:15.496Z,99196.91
2023-03-13T16:57:37.315Z,99188.00
2023-03-13T17:01:05.410Z,99189.47
2023-03-13T17:04:27.594Z,99190.50
2023-03-13T17:07:50.745Z,99180.59
2023-03-13T17:11:19.237Z,99181.78
2023-03-13T17:14:40.479Z,99176.00
2023-03-13T17:18:02.184Z,99169.19
2023-03-13T17:21:25.912Z,99166.06
2023-03-13T17:24:48.620Z,99173.03
2023-03-13T17:28:14.826Z,99171.56
2023-03-13T17:31:38.571Z,99159.56
2023-03-13T17:35:00.360Z,99162.25
2023-03-13T17:38:22.120Z,99158.28
2023-03-13T17:41:43.804Z,99179.66
2023-03-13T17:45:08.196Z,99183.94
2023-03-13T17:48:29.757Z,99180.66
2023-03-13T17:51:51.344Z,99171.13
2023-03-13T17:55:13.424Z,99169.47
2023-03-13T17:58:35.065Z,99169.47
2023-03-13T18:01:57.769Z,99173.94
2023-03-13T18:05:19.543Z,99170.44
2023-03-13T18:08:41.301Z,99156.63
2023-03-13T18:12:03.128Z,99167.97
2023-03-13T18:15:26.242Z,99151.44
2023-03-13T18:18:49.210Z,99148.31
2023-03-13T18:22:14.666Z,99139.84
2023-03-13T18:25:36.486Z,99150.97
2023-03-13T18:29:00.428Z,99149.09
2023-03-13T18:32:22.713Z,99147.03
2023-03-13T18:35:46.015Z,99140.00
2023-03-13T18:39:07.611Z,99149.44
2023-03-13T18:42:29.100Z,99143.00
2023-03-13T18:45:51.089Z,99141.38
2023-03-13T18:49:17.167Z,99133.13
2023-03-13T18:52:40.262Z,99135.78
2023-03-13T18:56:07.343Z,99131.28
2023-03-13T18:59:29.569Z,99117.91
2023-03-13T19:02:51.462Z,99130.84
2023-03-13T19:06:22.830Z,99119.25
2023-03-13T19:09:47.164Z,99118.00
2023-03-13T19:13:08.725Z,99127.84
2023-03-13T19:16:35.009Z,99126.19
2023-03-13T19:19:57.428Z,99122.50
2023-03-13T19:23:18.775Z,99129.50
2023-03-13T19:26:43.604Z,99120.44
2023-03-13T19:30:06.394Z,99110.59
2023-03-13T19:33:28.062Z,99106.03
2023-03-13T19:36:50.509Z,99118.81
2023-03-13T19:40:19.183Z,99109.97
2023-03-13T19:43:42.798Z,99109.50
2023-03-13T19:47:05.588Z,99110.28
2023-03-13T19:50:27.797Z,99106.41
2023-03-13T19:53:43.212Z,99112.56
2023-03-13T19:57:01.173Z,99116.91
2023-03-13T20:00:27.501Z,99107.03
2023-03-13T20:03:48.949Z,99109.91
2023-03-13T20:07:10.736Z,99111.75
2023-03-13T20:10:32.111Z,99119.78
2023-03-13T20:13:54.583Z,99115.47
2023-03-13T20:17:17.393Z,99125.53
2023-03-13T20:20:38.788Z,99128.19
2023-03-13T20:24:01.511Z,99110.28
2023-03-13T20:27:24.317Z,99105.56
2023-03-13T20:30:48.411Z,99092.81
2023-03-13T20:34:11.384Z,99080.66
2023-03-13T20:37:32.756Z,99080.03
2023-03-13T20:40:55.254Z,99070.53
2023-03-13T20:44:16.848Z,99075.06
2023-03-13T20:47:38.485Z,99077.75
2023-03-13T20:51:02.237Z,99071.56
2023-03-13T20:54:23.478Z,99059.38
2023-03-13T20:57:44.808Z,99051.56
2023-03-13T21:01:08.270Z,99057.09
2023-03-13T21:04:29.820Z,99060.59
2023-03-13T21:07:53.005Z,99063.28
2023-03-13T21:11:15.344Z,99053.16
2023-03-13T21:14:37.213Z,99073.50
2023-03-13T21:17:58.576Z,99057.44
2023-03-13T21:21:22.289Z,99050.63
2023-03-13T21:24:45.191Z,99047.13
2023-03-13T21:28:07.997Z,99049.75
2023-03-13T21:31:29.433Z,99040.69
2023-03-13T21:34:51.425Z,99049.34
2023-03-13T21:38:13.154Z,99048.91
2023-03-13T21:41:35.961Z,99043.38
2023-03-13T21:44:57.796Z,99059.41
2023-03-13T21:48:19.848Z,99072.59
2023-03-13T21:51:41.367Z,99068.47
2023-03-13T21:55:03.293Z,99069.03
2023-03-13T21:58:26.566Z,99061.63
2023-03-13T22:01:47.968Z,99072.31
2023-03-13T22:05:10.373Z,99061.16
2023-03-13T22:08:32.452Z,99050.44
2023-03-13T22:11:54.323Z,99051.47
2023-03-13T22:15:16.973Z,99053.03
2023-03-13T22:18:39.014Z,99046.22
2023-03-13T22:22:00.405Z,99033.03
2023-03-13T22:25:22.021Z,99048.06
2023-03-13T22:28:43.831Z,99041.91
2023-03-13T22:32:06.797Z,99031.19
2023-03-13T22:35:28.355Z,99038.34
2023-03-13T22:38:49.997Z,99033.38
2023-03-13T22:42:11.636Z,99022.00
2023-03-13T22:45:34.098Z,99033.38
2023-03-13T22:48:56.920Z,99047.72
2023-03-13T22:52:18.691Z,99042.13
2023-03-13T22:55:40.377Z,99045.44
2023-03-13T22:59:03.076Z,99032.91
2023-03-13T23:02:24.753Z,99026.34
2023-03-13T23:05:48.211Z,99030.50
2023-03-13T23:09:09.743Z,99015.28
2023-03-13T23:12:31.098Z,99016.56
2023-03-13T23:15:56.331Z,99029.94
2023-03-13T23:19:18.108Z,99021.84
2023-03-13T23:22:41.207Z,99032.34
2023-03-13T23:26:03.016Z,99035.03
2023-03-13T23:29:24.430Z,99027.19
2023-03-13T23:32:48.293Z,99018.16
2023-03-13T23:36:13.099Z,99004.97
2023-03-13T23:39:36.113Z,98989.59
2023-03-13T23:42:57.534Z,99001.72
2023-03-13T23:46:20.715Z,98996.75
2023-03-13T23:49:42.622Z,99002.28
2023-03-13T23:53:04.088Z,99005.97
2023-03-13T23:56:29.462Z,98983.31
2023-03-13T23:59:51.674Z,98998.34
